Time;durP1;ratioP1;P1;durP2;ratioP2;P2;SDS_P1;SDS_P2;PMS_P1;PMS_P2;Temp;Humidity;BMP_temperature;BMP_pressure;BME280_temperature;BME280_humidity;BME280_pressure;Samples;Min_cycle;Max_cycle;Signal;HPM_P1;HPM_P2
2021/08/16 00:00:10;;;;;;;7.43;5.40;;;;;24.40;99913.00;;;;2063026;28;20214;-52
2021/08/16 00:01:11;;;;;;;6.20;5.17;;;;;24.40;99908.00;;;;2062768;28;20218;-56
2021/08/16 00:02:11;;;;;;;6.47;5.30;;;;;24.40;99897.00;;;;2067749;28;20485;-56
2021/08/16 00:03:11;;;;;;;6.53;5.13;;;;;24.40;99898.00;;;;2066917;28;20722;-53
2021/08/16 00:04:12;;;;;;;7.57;5.57;;;;;24.40;99906.00;;;;2063283;28;20219;-54
2021/08/16 00:05:15;;;;;;;7.63;5.07;;;;;24.40;99903.00;;;;2066243;28;20219;-56
2021/08/16 00:06:17;;;;;;;4.60;4.10;;;;;24.40;99900.00;;;;2058005;28;20962;-53
2021/08/16 00:07:19;;;;;;;5.22;4.30;;;;;24.40;99910.00;;;;2056651;28;20383;-55
2021/08/16 00:08:19;;;;;;;5.07;4.57;;;;;24.40;99905.00;;;;2059148;28;20215;-54
2021/08/16 00:09:20;;;;;;;5.93;4.20;;;;;24.40;99897.00;;;;2055632;28;20207;-54
2021/08/16 00:10:20;;;;;;;6.20;4.53;;;;;24.40;99902.00;;;;2058531;28;20295;-55
2021/08/16 00:11:21;;;;;;;5.37;4.20;;;;;24.40;99895.00;;;;2055228;28;20226;-56
2021/08/16 00:12:21;;;;;;;5.50;4.53;;;;;24.40;99898.00;;;;2058486;28;20220;-56
2021/08/16 00:13:24;;;;;;;5.80;4.80;;;;;24.40;99895.00;;;;2065546;28;20591;-55
2021/08/16 00:14:25;;;;;;;6.13;4.18;;;;;24.40;99902.00;;;;2064209;28;20226;-55
2021/08/16 00:15:25;;;;;;;5.17;4.67;;;;;24.40;99892.00;;;;2065554;28;20215;-56
2021/08/16 00:16:27;;;;;;;5.27;4.40;;;;;24.40;99896.00;;;;2066978;28;20309;-55
2021/08/16 00:17:27;;;;;;;5.22;4.25;;;;;24.40;99894.00;;;;2063966;28;20223;-53
2021/08/16 00:18:29;;;;;;;5.50;4.23;;;;;24.40;99899.00;;;;2070394;28;20230;-54
2021/08/16 00:19:30;;;;;;;5.47;4.70;;;;;24.40;99901.00;;;;2070561;28;20210;-56
2021/08/16 00:20:30;;;;;;;5.37;4.87;;;;;24.40;99898.00;;;;2065281;28;20223;-53
2021/08/16 00:21:30;;;;;;;4.83;4.00;;;;;24.40;99895.00;;;;2067389;28;20683;-54
2021/08/16 00:22:31;;;;;;;5.73;4.53;;;;;24.40;99896.00;;;;2060289;28;20215;-54
2021/08/16 00:23:31;;;;;;;4.70;4.10;;;;;24.40;99898.00;;;;2064772;28;20223;-55
2021/08/16 00:24:35;;;;;;;6.80;4.53;;;;;24.40;99888.00;;;;2066479;28;20210;-55
2021/08/16 00:25:36;;;;;;;4.65;4.15;;;;;24.40;99888.00;;;;2069979;28;20222;-54
2021/08/16 00:26:37;;;;;;;4.67;4.17;;;;;24.40;99894.00;;;;2061903;28;20250;-51
2021/08/16 00:27:37;;;;;;;5.50;4.40;;;;;24.30;99893.00;;;;2078909;28;20214;-54
2021/08/16 00:28:37;;;;;;;5.50;3.90;;;;;24.40;99887.00;;;;2072919;28;21087;-55
2021/08/16 00:29:38;;;;;;;5.10;3.80;;;;;24.40;99896.00;;;;2063590;28;20803;-54
2021/08/16 00:30:38;;;;;;;4.73;4.27;;;;;24.40;99887.00;;;;2065823;28;20332;-54
2021/08/16 00:31:38;;;;;;;5.70;4.70;;;;;24.30;99894.00;;;;2064939;28;20301;-53
2021/08/16 00:32:39;;;;;;;3.77;3.03;;;;;24.30;99887.00;;;;2067571;28;20269;-53
2021/08/16 00:33:39;;;;;;;4.40;4.00;;;;;24.30;99888.00;;;;2063211;28;20695;-56
2021/08/16 00:34:40;;;;;;;5.10;3.83;;;;;24.40;99891.00;;;;2056712;28;20294;-55
2021/08/16 00:35:40;;;;;;;4.77;3.70;;;;;24.30;99883.00;;;;2056663;28;20216;-56
2021/08/16 00:36:40;;;;;;;3.70;3.40;;;;;24.40;99885.00;;;;2059377;28;20216;-54
2021/08/16 00:37:42;;;;;;;5.57;3.63;;;;;24.40;99885.00;;;;2057658;28;20211;-54
2021/08/16 00:38:42;;;;;;;5.18;3.33;;;;;24.30;99885.00;;;;2068880;28;20245;-56
2021/08/16 00:39:43;;;;;;;4.53;4.07;;;;;24.30;99885.00;;;;2056261;28;20325;-54
2021/08/16 00:40:43;;;;;;;4.70;3.93;;;;;24.30;99883.00;;;;2054969;28;20214;-53
2021/08/16 00:41:47;;;;;;;4.50;3.90;;;;;24.30;99881.00;;;;2055528;28;20215;-54
2021/08/16 00:42:47;;;;;;;4.90;3.40;;;;;24.30;99881.00;;;;2059856;28;20276;-53
2021/08/16 00:43:49;;;;;;;3.87;3.53;;;;;24.30;99880.00;;;;2054674;28;20709;-54
2021/08/16 00:44:50;;;;;;;4.60;3.42;;;;;24.30;99886.00;;;;2054943;28;20223;-54
2021/08/16 00:45:50;;;;;;;5.40;3.87;;;;;24.30;99888.00;;;;2063271;28;20234;-54
2021/08/16 00:46:51;;;;;;;3.80;3.40;;;;;24.30;99894.00;;;;2062346;28;20266;-55
2021/08/16 00:47:51;;;;;;;4.73;3.53;;;;;24.30;99894.00;;;;2065923;28;20211;-57
2021/08/16 00:48:53;;;;;;;4.80;3.67;;;;;24.30;99895.00;;;;2066806;28;20210;-56
2021/08/16 00:49:54;;;;;;;5.63;3.60;;;;;24.30;99893.00;;;;2070091;28;20214;-56
2021/08/16 00:50:54;;;;;;;3.80;3.20;;;;;24.30;99886.00;;;;2065966;28;20290;-56
2021/08/16 00:51:54;;;;;;;4.30;3.63;;;;;24.30;99891.00;;;;2063516;28;20307;-55
2021/08/16 00:52:56;;;;;;;5.63;4.23;;;;;24.30;99896.00;;;;2066889;28;20265;-57
2021/08/16 00:53:57;;;;;;;4.15;3.50;;;;;24.30;99887.00;;;;2067362;28;20288;-56
2021/08/16 00:54:58;;;;;;;3.97;3.50;;;;;24.30;99894.00;;;;2062955;28;20765;-54
2021/08/16 00:55:58;;;;;;;3.87;3.10;;;;;24.30;99894.00;;;;2069964;28;20211;-56
2021/08/16 00:57:00;;;;;;;3.90;3.50;;;;;24.30;99900.00;;;;2066157;28;20210;-54
2021/08/16 00:58:00;;;;;;;4.85;3.35;;;;;24.30;99905.00;;;;2065672;28;20250;-56
2021/08/16 00:59:01;;;;;;;4.10;3.57;;;;;24.30;99900.00;;;;2067208;28;20214;-56
2021/08/16 01:00:05;;;;;;;4.10;3.70;;;;;24.30;99906.00;;;;2070497;28;20214;-55
2021/08/16 01:01:06;;;;;;;5.20;3.22;;;;;24.30;99902.00;;;;2070503;28;20304;-54
2021/08/16 01:02:06;;;;;;;3.97;3.20;;;;;24.30;99898.00;;;;2062204;28;20226;-54
2021/08/16 01:03:06;;;;;;;4.30;3.50;;;;;24.30;99903.00;;;;2064393;28;20206;-56
2021/08/16 01:04:07;;;;;;;5.00;3.10;;;;;24.30;99911.00;;;;2068146;28;20202;-54
2021/08/16 01:05:11;;;;;;;3.63;3.13;;;;;24.30;99913.00;;;;2054987;28;20543;-55
2021/08/16 01:06:11;;;;;;;4.05;3.63;;;;;24.30;99909.00;;;;2071744;28;20207;-56
2021/08/16 01:07:12;;;;;;;3.63;3.20;;;;;24.30;99906.00;;;;2079363;28;20297;-54
2021/08/16 01:08:12;;;;;;;4.00;3.20;;;;;24.30;99904.00;;;;2057305;28;20214;-54
2021/08/16 01:09:12;;;;;;;3.93;3.50;;;;;24.30;99909.00;;;;2056985;28;20598;-56
2021/08/16 01:10:14;;;;;;;4.63;3.10;;;;;24.30;99914.00;;;;2062321;28;20237;-52
2021/08/16 01:11:15;;;;;;;4.07;3.30;;;;;24.30;99919.00;;;;2062374;28;20229;-55
2021/08/16 01:12:15;;;;;;;4.22;2.78;;;;;24.30;99919.00;;;;2056599;28;21270;-56
2021/08/16 01:13:16;;;;;;;3.43;3.13;;;;;24.30;99909.00;;;;2062395;28;20214;-55
2021/08/16 01:14:17;;;;;;;4.10;3.00;;;;;24.30;99913.00;;;;2053124;28;20246;-54
2021/08/16 01:15:18;;;;;;;3.50;3.00;;;;;24.30;99914.00;;;;2057838;28;20230;-54
2021/08/16 01:16:19;;;;;;;2.90;2.57;;;;;24.30;99918.00;;;;2055450;28;20463;-53
2021/08/16 01:17:19;;;;;;;4.22;3.75;;;;;24.30;99919.00;;;;2058822;28;20215;-53
2021/08/16 01:18:20;;;;;;;6.20;3.30;;;;;24.30;99913.00;;;;2057992;28;20278;-54
2021/08/16 01:19:21;;;;;;;6.10;2.80;;;;;24.30;99918.00;;;;2055686;28;20215;-53
2021/08/16 01:20:21;;;;;;;3.55;3.00;;;;;24.30;99918.00;;;;2054562;28;20212;-56
2021/08/16 01:21:22;;;;;;;3.67;2.93;;;;;24.30;99923.00;;;;2059179;28;20219;-57
2021/08/16 01:22:23;;;;;;;4.93;3.07;;;;;24.20;99921.00;;;;2058143;28;20454;-53
2021/08/16 01:23:23;;;;;;;3.63;2.60;;;;;24.30;99928.00;;;;2055068;28;20293;-54
2021/08/16 01:24:24;;;;;;;3.87;2.97;;;;;24.30;99922.00;;;;2054688;28;20654;-56
2021/08/16 01:25:25;;;;;;;3.50;2.93;;;;;24.30;99915.00;;;;2061104;28;20220;-56
2021/08/16 01:26:26;;;;;;;4.50;3.42;;;;;24.30;99919.00;;;;2055204;28;20299;-54
2021/08/16 01:27:26;;;;;;;5.50;2.63;;;;;24.30;99923.00;;;;2054545;28;20223;-54
2021/08/16 01:28:27;;;;;;;4.10;3.27;;;;;24.30;99916.00;;;;2054132;28;20591;-53
2021/08/16 01:29:28;;;;;;;4.97;3.20;;;;;24.20;99927.00;;;;2058401;28;20591;-56
2021/08/16 01:30:29;;;;;;;5.00;3.07;;;;;24.20;99917.00;;;;2054557;28;20210;-53
2021/08/16 01:31:29;;;;;;;3.80;2.90;;;;;24.20;99932.00;;;;2053164;28;20893;-53
2021/08/16 01:32:29;;;;;;;5.43;3.40;;;;;24.30;99927.00;;;;2058762;28;20272;-55
2021/08/16 01:33:30;;;;;;;5.03;2.90;;;;;24.30;99922.00;;;;2052403;28;20211;-56
2021/08/16 01:34:31;;;;;;;5.33;3.00;;;;;24.20;99924.00;;;;2054845;28;20711;-54
2021/08/16 01:35:31;;;;;;;4.20;2.70;;;;;24.30;99922.00;;;;2060689;28;20481;-53
2021/08/16 01:36:31;;;;;;;4.50;3.10;;;;;24.30;99911.00;;;;2059549;28;20679;-54
2021/08/16 01:37:32;;;;;;;4.60;2.97;;;;;24.30;99926.00;;;;2065817;28;20582;-53
2021/08/16 01:38:36;;;;;;;4.50;2.80;;;;;24.20;99931.00;;;;2057883;28;20303;-55
2021/08/16 01:39:37;;;;;;;3.55;2.72;;;;;24.20;99914.00;;;;2054850;28;20323;-56
2021/08/16 01:40:38;;;;;;;3.50;2.70;;;;;24.20;99924.00;;;;2054117;28;20270;-53
2021/08/16 01:41:38;;;;;;;3.70;3.00;;;;;24.20;99919.00;;;;2055080;28;20223;-55
2021/08/16 01:42:38;;;;;;;4.53;2.83;;;;;24.20;99918.00;;;;2054880;28;20219;-55
2021/08/16 01:43:39;;;;;;;3.93;2.73;;;;;24.20;99930.00;;;;2061454;28;20226;-55
2021/08/16 01:44:40;;;;;;;3.10;2.67;;;;;24.20;99923.00;;;;2062330;28;20213;-55
2021/08/16 01:45:41;;;;;;;4.00;3.10;;;;;24.20;99921.00;;;;2062676;28;20207;-56
2021/08/16 01:46:42;;;;;;;4.63;2.53;;;;;24.20;99921.00;;;;2062664;28;20967;-52
2021/08/16 01:47:42;;;;;;;3.20;2.78;;;;;24.20;99917.00;;;;2062763;28;20217;-56
2021/08/16 01:48:43;;;;;;;6.03;2.97;;;;;24.20;99921.00;;;;2060669;28;20584;-56
2021/08/16 01:49:43;;;;;;;3.30;2.57;;;;;24.20;99930.00;;;;2062423;28;20214;-54
2021/08/16 01:50:43;;;;;;;3.23;2.90;;;;;24.20;99933.00;;;;2053886;28;20298;-54
2021/08/16 01:51:44;;;;;;;3.53;2.33;;;;;24.20;99923.00;;;;2063917;28;20210;-53
2021/08/16 01:52:45;;;;;;;4.40;2.60;;;;;24.20;99929.00;;;;2065192;28;20211;-53
2021/08/16 01:53:46;;;;;;;3.90;2.40;;;;;24.20;99926.00;;;;2062885;28;20946;-51
2021/08/16 01:54:46;;;;;;;3.13;2.30;;;;;24.20;99926.00;;;;2054724;28;20212;-55
2021/08/16 01:55:47;;;;;;;4.13;2.80;;;;;24.20;99929.00;;;;2058197;28;20458;-54
2021/08/16 01:56:47;;;;;;;5.23;2.43;;;;;24.20;99925.00;;;;2054662;28;20230;-55
2021/08/16 01:57:49;;;;;;;3.83;2.33;;;;;24.20;99923.00;;;;2057248;28;20231;-53
2021/08/16 01:58:50;;;;;;;5.28;2.53;;;;;24.20;99923.00;;;;2054405;28;20219;-52
2021/08/16 01:59:50;;;;;;;3.13;2.50;;;;;24.20;99919.00;;;;2058345;28;20219;-55
2021/08/16 02:00:51;;;;;;;3.33;2.40;;;;;24.20;99915.00;;;;2054107;28;20199;-53
2021/08/16 02:01:52;;;;;;;3.20;2.50;;;;;24.20;99918.00;;;;2058826;28;20687;-55
2021/08/16 02:02:52;;;;;;;4.72;2.30;;;;;24.20;99912.00;;;;2056713;28;20226;-54
2021/08/16 02:03:52;;;;;;;2.80;2.13;;;;;24.20;99916.00;;;;2062475;28;24128;-53
2021/08/16 02:04:53;;;;;;;3.13;2.30;;;;;24.20;99919.00;;;;2056360;28;20226;-53
2021/08/16 02:05:53;;;;;;;5.13;2.67;;;;;24.20;99925.00;;;;2058154;28;20225;-56
2021/08/16 02:06:54;;;;;;;3.13;2.30;;;;;24.20;99924.00;;;;2056746;28;20759;-55
2021/08/16 02:08:06;;;;;;;4.10;2.10;;;;;24.20;99918.00;;;;2054111;28;20235;-55
2021/08/16 02:09:06;;;;;;;6.25;2.35;;;;;24.20;99929.00;;;;2053936;28;20490;-51
2021/08/16 02:10:07;;;;;;;3.30;2.60;;;;;24.20;99926.00;;;;2054582;28;20216;-55
2021/08/16 02:11:08;;;;;;;4.53;2.23;;;;;24.20;99926.00;;;;2065829;28;20229;-53
2021/08/16 02:12:09;;;;;;;3.35;1.85;;;;;24.20;99917.00;;;;2066790;28;20246;-54
2021/08/16 02:13:11;;;;;;;3.37;2.40;;;;;24.20;99919.00;;;;2063101;28;20219;-55
2021/08/16 02:14:11;;;;;;;5.22;2.42;;;;;24.20;99917.00;;;;2066115;28;20611;-54
2021/08/16 02:15:12;;;;;;;4.07;2.40;;;;;24.20;99915.00;;;;2066836;28;20218;-56
2021/08/16 02:16:13;;;;;;;3.67;2.50;;;;;24.20;99920.00;;;;2063753;28;20229;-56
2021/08/16 02:17:13;;;;;;;3.50;2.27;;;;;24.20;99913.00;;;;2065093;28;20223;-54
2021/08/16 02:18:13;;;;;;;4.30;2.60;;;;;24.10;99923.00;;;;2064081;28;20226;-56
2021/08/16 02:19:14;;;;;;;2.73;2.00;;;;;24.10;99914.00;;;;2063188;28;20219;-56
2021/08/16 02:20:15;;;;;;;2.37;1.90;;;;;24.10;99920.00;;;;2064855;28;20219;-55
2021/08/16 02:21:16;;;;;;;3.78;2.15;;;;;24.10;99916.00;;;;2066839;28;20461;-55
2021/08/16 02:22:16;;;;;;;3.63;1.90;;;;;24.10;99907.00;;;;2061289;28;20235;-55
2021/08/16 02:23:17;;;;;;;3.17;2.20;;;;;24.10;99909.00;;;;2070200;28;20213;-52
2021/08/16 02:24:17;;;;;;;3.47;2.20;;;;;24.10;99910.00;;;;2069870;28;20904;-54
2021/08/16 02:25:18;;;;;;;3.10;1.80;;;;;24.10;99908.00;;;;2057265;28;20235;-54
2021/08/16 02:26:18;;;;;;;2.70;2.30;;;;;24.20;99916.00;;;;2056279;28;20212;-54
2021/08/16 02:27:19;;;;;;;4.63;2.47;;;;;24.10;99909.00;;;;2056788;28;20302;-55
2021/08/16 02:28:19;;;;;;;3.97;2.10;;;;;24.10;99910.00;;;;2056590;28;20226;-53
2021/08/16 02:29:19;;;;;;;3.77;1.83;;;;;24.10;99907.00;;;;2057031;28;20212;-54
2021/08/16 02:30:20;;;;;;;5.27;2.27;;;;;24.10;99909.00;;;;2055996;28;20219;-55
2021/08/16 02:31:23;;;;;;;4.90;2.40;;;;;24.10;99909.00;;;;2060861;28;20294;-53
2021/08/16 02:32:24;;;;;;;2.97;2.05;;;;;24.10;99907.00;;;;2064504;28;20214;-55
2021/08/16 02:33:24;;;;;;;3.53;1.80;;;;;24.10;99911.00;;;;2064355;28;20218;-56
2021/08/16 02:34:25;;;;;;;4.00;2.50;;;;;24.10;99911.00;;;;2064236;28;20207;-54
2021/08/16 02:35:25;;;;;;;3.63;1.87;;;;;24.10;99917.00;;;;2064676;28;20628;-53
2021/08/16 02:36:25;;;;;;;3.30;2.33;;;;;24.10;99914.00;;;;2057491;28;20222;-54
2021/08/16 02:37:26;;;;;;;3.33;2.03;;;;;24.10;99910.00;;;;2060808;28;20233;-54
2021/08/16 02:38:27;;;;;;;5.20;2.43;;;;;24.10;99901.00;;;;2058384;28;20230;-56
2021/08/16 02:39:27;;;;;;;5.83;2.40;;;;;24.10;99915.00;;;;2058125;28;20227;-55
2021/08/16 02:40:27;;;;;;;3.73;1.97;;;;;24.10;99911.00;;;;2056546;28;20223;-53
2021/08/16 02:41:28;;;;;;;4.47;2.30;;;;;24.00;99910.00;;;;2057535;28;20224;-53
2021/08/16 02:42:28;;;;;;;3.47;2.00;;;;;24.10;99913.00;;;;2050834;28;20294;-56
2021/08/16 02:43:29;;;;;;;4.93;2.03;;;;;24.10;99906.00;;;;2059574;28;20787;-56
2021/08/16 02:44:29;;;;;;;4.37;2.13;;;;;24.10;99912.00;;;;2055892;28;20607;-54
2021/08/16 02:45:30;;;;;;;4.90;1.97;;;;;24.10;99911.00;;;;2066719;28;20403;-55
2021/08/16 02:46:30;;;;;;;3.57;1.90;;;;;24.10;99908.00;;;;2068237;28;20223;-55
2021/08/16 02:47:30;;;;;;;3.27;2.10;;;;;24.10;99908.00;;;;2066231;28;20241;-57
2021/08/16 02:48:31;;;;;;;4.00;2.20;;;;;24.10;99903.00;;;;2064885;28;20227;-56
2021/08/16 02:49:31;;;;;;;3.93;2.20;;;;;24.10;99894.00;;;;2067897;28;20217;-56
2021/08/16 02:50:31;;;;;;;5.73;1.70;;;;;24.10;99905.00;;;;2066425;28;20726;-56
2021/08/16 02:51:32;;;;;;;5.30;2.20;;;;;24.10;99903.00;;;;2064567;28;20293;-52
2021/08/16 02:52:34;;;;;;;3.67;1.88;;;;;24.10;99903.00;;;;2055899;28;20216;-55
2021/08/16 02:53:34;;;;;;;4.50;2.33;;;;;24.10;99905.00;;;;2060304;28;20257;-55
2021/08/16 02:54:35;;;;;;;3.57;1.83;;;;;24.10;99899.00;;;;2066518;28;20702;-55
2021/08/16 02:55:35;;;;;;;4.50;2.10;;;;;24.10;99896.00;;;;2065031;28;20677;-55
2021/08/16 02:56:37;;;;;;;4.43;2.50;;;;;24.10;99898.00;;;;2067869;28;20227;-55
2021/08/16 02:57:37;;;;;;;2.65;1.80;;;;;24.10;99893.00;;;;2060369;28;20713;-56
2021/08/16 02:58:37;;;;;;;3.30;2.20;;;;;24.10;99899.00;;;;2066056;28;20214;-55
2021/08/16 02:59:38;;;;;;;4.27;2.20;;;;;24.10;99891.00;;;;2079381;28;20737;-56
2021/08/16 03:00:38;;;;;;;4.40;2.00;;;;;24.10;99901.00;;;;2061281;28;20598;-54
2021/08/16 03:01:39;;;;;;;4.13;2.03;;;;;24.10;99892.00;;;;2059728;28;20230;-56
2021/08/16 03:02:40;;;;;;;2.40;1.80;;;;;24.10;99901.00;;;;2056191;28;20226;-55
2021/08/16 03:03:41;;;;;;;2.95;1.65;;;;;24.10;99891.00;;;;2056152;28;20219;-55
2021/08/16 03:04:41;;;;;;;4.20;2.10;;;;;24.10;99890.00;;;;2060219;28;20328;-54
2021/08/16 03:05:42;;;;;;;3.07;2.27;;;;;24.10;99891.00;;;;2061760;28;20226;-56
2021/08/16 03:06:43;;;;;;;5.72;2.60;;;;;24.10;99899.00;;;;2062570;28;20215;-57
2021/08/16 03:07:43;;;;;;;4.73;2.30;;;;;24.10;99899.00;;;;2064029;28;20234;-56
2021/08/16 03:08:44;;;;;;;3.00;1.93;;;;;24.10;99895.00;;;;2061091;28;20771;-55
2021/08/16 03:09:45;;;;;;;5.43;2.00;;;;;24.10;99887.00;;;;2063466;28;20210;-54
2021/08/16 03:10:45;;;;;;;6.27;2.50;;;;;24.10;99890.00;;;;2059293;28;20230;-55
2021/08/16 03:11:45;;;;;;;2.83;2.00;;;;;24.10;99893.00;;;;2059680;28;20695;-54
2021/08/16 03:12:46;;;;;;;4.07;2.10;;;;;24.10;99891.00;;;;2067707;28;20213;-54
2021/08/16 03:13:46;;;;;;;2.93;2.10;;;;;24.10;99882.00;;;;2062556;28;20219;-54
2021/08/16 03:14:46;;;;;;;3.60;2.00;;;;;24.10;99893.00;;;;2059526;28;20294;-56
2021/08/16 03:15:47;;;;;;;2.90;2.00;;;;;24.10;99885.00;;;;2063550;28;20215;-53
2021/08/16 03:16:47;;;;;;;4.93;2.40;;;;;24.10;99887.00;;;;2071432;28;20345;-54
2021/08/16 03:17:48;;;;;;;2.70;1.80;;;;;24.10;99884.00;;;;2065881;28;20215;-54
2021/08/16 03:18:48;;;;;;;3.00;2.10;;;;;24.10;99886.00;;;;2068006;28;20214;-54
2021/08/16 03:19:49;;;;;;;3.87;2.13;;;;;24.10;99879.00;;;;2064472;28;20214;-55
2021/08/16 03:20:51;;;;;;;3.83;1.90;;;;;24.10;99883.00;;;;2066828;28;20211;-55
2021/08/16 03:21:51;;;;;;;3.70;2.30;;;;;24.10;99876.00;;;;2066213;28;20726;-56
2021/08/16 03:22:52;;;;;;;5.80;2.13;;;;;24.10;99877.00;;;;2055102;28;20211;-53
2021/08/16 03:23:52;;;;;;;4.20;2.07;;;;;24.10;99879.00;;;;2059994;28;20237;-53
2021/08/16 03:24:53;;;;;;;3.45;2.30;;;;;24.10;99881.00;;;;2061566;28;20587;-53
2021/08/16 03:25:54;;;;;;;5.53;2.40;;;;;24.10;99878.00;;;;2056692;28;20295;-56
2021/08/16 03:26:56;;;;;;;3.83;2.53;;;;;24.10;99870.00;;;;2059524;28;20212;-56
2021/08/16 03:27:57;;;;;;;3.90;2.15;;;;;24.10;99881.00;;;;2064631;28;20203;-56
2021/08/16 03:28:57;;;;;;;4.30;2.30;;;;;24.10;99879.00;;;;2071361;28;20929;-56
2021/08/16 03:29:58;;;;;;;3.03;2.13;;;;;24.10;99882.00;;;;2059896;28;20602;-53
2021/08/16 03:30:58;;;;;;;3.60;2.20;;;;;24.10;99882.00;;;;2057114;28;20230;-53
2021/08/16 03:32:00;;;;;;;3.50;2.60;;;;;24.10;99881.00;;;;2058231;28;20222;-55
2021/08/16 03:33:01;;;;;;;4.35;2.08;;;;;24.10;99882.00;;;;2060377;28;20261;-56
2021/08/16 03:34:01;;;;;;;4.83;2.67;;;;;24.10;99888.00;;;;2067956;28;20210;-56
2021/08/16 03:35:02;;;;;;;3.43;2.40;;;;;24.10;99883.00;;;;2063572;28;20229;-53
2021/08/16 03:36:03;;;;;;;3.60;2.20;;;;;24.10;99891.00;;;;2063564;28;20211;-55
2021/08/16 03:37:03;;;;;;;3.77;2.20;;;;;24.10;99875.00;;;;2059241;28;20207;-54
2021/08/16 03:38:04;;;;;;;5.37;2.50;;;;;24.10;99878.00;;;;2060397;28;20223;-55
2021/08/16 03:39:04;;;;;;;4.07;2.30;;;;;24.10;99885.00;;;;2059361;28;20556;-56
2021/08/16 03:40:05;;;;;;;3.00;1.87;;;;;24.10;99891.00;;;;2055552;28;20425;-55
2021/08/16 03:41:06;;;;;;;4.57;2.15;;;;;24.10;99895.00;;;;2059222;28;20781;-52
2021/08/16 03:42:06;;;;;;;4.37;2.10;;;;;24.10;99893.00;;;;2055455;28;20207;-54
2021/08/16 03:43:09;;;;;;;4.70;2.30;;;;;24.10;99890.00;;;;2062537;28;20237;-55
2021/08/16 03:44:09;;;;;;;5.57;2.50;;;;;24.10;99893.00;;;;2057034;28;20303;-56
2021/08/16 03:45:11;;;;;;;6.73;2.33;;;;;24.10;99881.00;;;;2055911;28;20215;-54
2021/08/16 03:46:11;;;;;;;2.65;1.77;;;;;24.10;99893.00;;;;2058874;28;20223;-53
2021/08/16 03:47:12;;;;;;;4.43;2.50;;;;;24.10;99885.00;;;;2058720;28;20568;-53
2021/08/16 03:48:12;;;;;;;4.50;2.37;;;;;24.10;99887.00;;;;2056585;28;20326;-52
2021/08/16 03:49:12;;;;;;;4.47;2.17;;;;;24.10;99883.00;;;;2055724;28;20226;-56
2021/08/16 03:50:13;;;;;;;4.60;2.27;;;;;24.10;99878.00;;;;2059576;28;20212;-52
2021/08/16 03:51:13;;;;;;;4.30;2.63;;;;;24.10;99882.00;;;;2058570;28;20229;-56
2021/08/16 03:52:14;;;;;;;4.80;2.10;;;;;23.90;99879.00;;;;2056240;28;20227;-55
2021/08/16 03:53:14;;;;;;;4.50;2.50;;;;;24.10;99889.00;;;;2055059;28;20212;-54
2021/08/16 03:54:15;;;;;;;3.20;1.90;;;;;24.10;99875.00;;;;2058654;28;20219;-55
2021/08/16 03:55:15;;;;;;;2.80;2.10;;;;;24.10;99877.00;;;;2056144;28;20223;-54
2021/08/16 03:56:16;;;;;;;4.50;2.67;;;;;24.10;99881.00;;;;2055488;28;20215;-55
2021/08/16 03:57:16;;;;;;;5.97;2.60;;;;;24.00;99875.00;;;;2064234;28;20218;-58
2021/08/16 03:58:17;;;;;;;4.33;2.53;;;;;24.00;99874.00;;;;2063845;28;20221;-54
2021/08/16 03:59:17;;;;;;;4.50;2.37;;;;;24.10;99885.00;;;;2065987;28;20222;-56
2021/08/16 04:00:18;;;;;;;4.50;2.47;;;;;24.10;99871.00;;;;2066256;28;20301;-55
2021/08/16 04:01:18;;;;;;;3.73;2.37;;;;;24.10;99871.00;;;;2063157;28;20342;-55
2021/08/16 04:02:18;;;;;;;4.10;2.60;;;;;24.10;99876.00;;;;2063799;28;20285;-53
2021/08/16 04:03:19;;;;;;;4.73;2.70;;;;;24.00;99886.00;;;;2067360;28;20309;-55
2021/08/16 04:04:20;;;;;;;4.10;2.27;;;;;24.00;99873.00;;;;2062775;28;20273;-56
2021/08/16 04:05:20;;;;;;;2.90;2.30;;;;;24.00;99872.00;;;;2067411;28;20273;-56
2021/08/16 04:06:20;;;;;;;4.53;2.63;;;;;24.00;99875.00;;;;2066860;28;20274;-56
2021/08/16 04:07:22;;;;;;;3.17;2.20;;;;;24.00;99873.00;;;;2062230;28;20267;-57
2021/08/16 04:08:22;;;;;;;3.00;2.20;;;;;24.00;99877.00;;;;2061616;28;20221;-60
2021/08/16 04:09:22;;;;;;;3.20;1.93;;;;;24.00;99882.00;;;;2055414;28;20220;-56
2021/08/16 04:10:25;;;;;;;4.32;2.50;;;;;24.00;99878.00;;;;2058565;28;20253;-55
2021/08/16 04:11:25;;;;;;;4.47;2.33;;;;;24.10;99875.00;;;;2054460;28;20585;-55
2021/08/16 04:12:26;;;;;;;4.37;2.47;;;;;24.00;99870.00;;;;2058863;28;20222;-55
2021/08/16 04:13:26;;;;;;;4.10;2.20;;;;;24.00;99887.00;;;;2059857;28;20987;-54
2021/08/16 04:14:27;;;;;;;4.70;2.57;;;;;24.00;99872.00;;;;2065512;28;20229;-53
2021/08/16 04:15:27;;;;;;;3.67;2.40;;;;;24.00;99885.00;;;;2056012;28;20299;-53
2021/08/16 04:16:27;;;;;;;3.90;2.50;;;;;24.00;99886.00;;;;2058384;28;20798;-56
2021/08/16 04:17:28;;;;;;;4.37;2.47;;;;;24.00;99875.00;;;;2055813;28;20246;-54
2021/08/16 04:18:28;;;;;;;5.50;2.40;;;;;24.00;99874.00;;;;2062439;28;20229;-55
2021/08/16 04:19:29;;;;;;;3.83;2.17;;;;;24.00;99878.00;;;;2054039;28;20764;-55
2021/08/16 04:20:31;;;;;;;4.87;2.60;;;;;24.00;99884.00;;;;2058018;28;20226;-53
2021/08/16 04:21:31;;;;;;;7.03;2.90;;;;;24.00;99871.00;;;;2055818;28;20310;-56
2021/08/16 04:22:31;;;;;;;3.80;2.20;;;;;24.00;99881.00;;;;2058080;28;20559;-53
2021/08/16 04:23:32;;;;;;;4.77;2.53;;;;;24.00;99881.00;;;;2056348;28;20222;-54
2021/08/16 04:24:32;;;;;;;4.10;2.43;;;;;24.00;99882.00;;;;2057043;28;20219;-54
2021/08/16 04:25:33;;;;;;;3.67;2.40;;;;;24.00;99883.00;;;;2056072;28;20219;-56
2021/08/16 04:26:33;;;;;;;5.27;2.30;;;;;24.00;99892.00;;;;2057492;28;20223;-52
2021/08/16 04:27:34;;;;;;;3.50;2.20;;;;;24.00;99882.00;;;;2056808;28;20716;-52
2021/08/16 04:28:34;;;;;;;5.90;2.70;;;;;24.00;99884.00;;;;2057722;28;20204;-55
2021/08/16 04:29:34;;;;;;;3.60;2.60;;;;;24.00;99887.00;;;;2056517;28;20224;-56
2021/08/16 04:30:35;;;;;;;3.43;2.20;;;;;24.00;99891.00;;;;2063062;28;20269;-55
2021/08/16 04:31:35;;;;;;;4.10;2.50;;;;;24.00;99886.00;;;;2067021;28;20218;-56
2021/08/16 04:32:36;;;;;;;5.47;2.60;;;;;24.00;99883.00;;;;2060715;28;20207;-52
2021/08/16 04:33:37;;;;;;;3.97;2.33;;;;;24.00;99894.00;;;;2062054;28;20695;-54
2021/08/16 04:34:37;;;;;;;3.50;2.47;;;;;24.00;99888.00;;;;2057452;28;21328;-54
2021/08/16 04:35:38;;;;;;;4.90;2.50;;;;;24.00;99886.00;;;;2055910;28;20227;-54
2021/08/16 04:36:39;;;;;;;5.30;2.53;;;;;24.00;99886.00;;;;2062186;28;20471;-57
2021/08/16 04:37:40;;;;;;;6.47;3.00;;;;;24.00;99885.00;;;;2055688;28;20454;-56
2021/08/16 04:38:40;;;;;;;4.80;2.90;;;;;24.00;99889.00;;;;2062939;28;20207;-54
2021/08/16 04:39:41;;;;;;;6.97;2.60;;;;;24.00;99886.00;;;;2055437;28;20664;-55
2021/08/16 04:40:41;;;;;;;5.40;2.53;;;;;24.00;99889.00;;;;2054809;28;20282;-55
2021/08/16 04:41:41;;;;;;;4.37;2.70;;;;;24.00;99880.00;;;;2059498;28;20207;-56
2021/08/16 04:42:42;;;;;;;4.37;2.83;;;;;24.00;99875.00;;;;2055425;28;20215;-56
2021/08/16 04:43:42;;;;;;;6.23;2.80;;;;;24.00;99887.00;;;;2058037;28;20309;-53
2021/08/16 04:44:43;;;;;;;4.37;2.77;;;;;24.00;99884.00;;;;2055413;28;20219;-54
2021/08/16 04:45:43;;;;;;;5.63;2.90;;;;;24.00;99884.00;;;;2060660;28;20210;-54
2021/08/16 04:46:44;;;;;;;4.67;2.80;;;;;24.00;99881.00;;;;2062511;28;20223;-53
2021/08/16 04:47:45;;;;;;;4.20;2.60;;;;;24.00;99882.00;;;;2057078;28;20214;-54
2021/08/16 04:48:45;;;;;;;2.97;2.40;;;;;24.00;99887.00;;;;2059183;28;20454;-55
2021/08/16 04:49:45;;;;;;;4.87;2.40;;;;;24.00;99887.00;;;;2055404;28;20211;-55
2021/08/16 04:50:46;;;;;;;4.73;2.50;;;;;24.00;99891.00;;;;2055868;28;20345;-55
2021/08/16 04:51:46;;;;;;;4.73;2.70;;;;;24.00;99891.00;;;;2052419;28;20227;-56
2021/08/16 04:52:46;;;;;;;6.20;2.63;;;;;24.00;99895.00;;;;2057688;28;20285;-53
2021/08/16 04:53:47;;;;;;;3.30;2.00;;;;;24.00;99892.00;;;;2055525;28;20238;-52
2021/08/16 04:54:47;;;;;;;5.53;3.13;;;;;24.00;99889.00;;;;2063093;28;20577;-54
2021/08/16 04:55:48;;;;;;;3.47;2.33;;;;;24.00;99884.00;;;;2064805;28;20598;-53
2021/08/16 04:56:50;;;;;;;5.60;2.70;;;;;24.00;99888.00;;;;2067176;28;20223;-54
2021/08/16 04:57:51;;;;;;;4.82;2.70;;;;;24.00;99883.00;;;;2064384;28;20218;-52
2021/08/16 04:58:51;;;;;;;4.93;2.73;;;;;24.00;99884.00;;;;2063402;28;20233;-55
2021/08/16 04:59:52;;;;;;;3.40;2.40;;;;;24.00;99876.00;;;;2067377;28;20485;-56
2021/08/16 05:00:53;;;;;;;4.70;2.83;;;;;24.00;99880.00;;;;2065952;28;20321;-55
2021/08/16 05:01:53;;;;;;;3.43;2.57;;;;;24.00;99887.00;;;;2055979;28;20215;-55
2021/08/16 05:02:54;;;;;;;4.33;3.17;;;;;24.00;99899.00;;;;2055152;28;20541;-54
2021/08/16 05:03:55;;;;;;;4.13;2.50;;;;;24.00;99891.00;;;;2059268;28;20648;-56